Port Lavaca, Texas
Current Conditions -  °F | °C
As of 4:15 PM on Friday 24 Oct 2014 (Local Time) from KPKV Reporting Station
Clear Clear  
Wind Chill: 83°   Ceiling: Unl
Heat Index: 83°   Visibility: 10mi
Dew Point: 57°   Wind: 5mph
Humidity: 40%   Direction: 30°NNE
Pressure: 30.08"   Gusts: NA
Location:  28.62°N, 96.62°W
Report Text: KPKV 242115Z AUTO 03004KT 10SM CLR 29/14 A3008 RMK AO2 T02860138
Loading
Personal Weather Stations






























Interactive Weather Map
Tropical Storm Tracking
New forecast layout! Learn more

10-Day Weather Forecast

Advertisements
Track Severe Weather on mobile